Time;durP1;ratioP1;P1;durP2;ratioP2;P2;SDS_P1;SDS_P2;PMS_P1;PMS_P2;Temp;Humidity;BMP_temperature;BMP_pressure;BME280_temperature;BME280_humidity;BME280_pressure;Samples;Min_cycle;Max_cycle;Signal;HPM_P1;HPM_P2
2022/08/23 00:01:16;;;;;;;59.20;3.80;;;;;;;;;;5115650;28;20449;-68
2022/08/23 00:03:44;;;;;;;62.73;4.13;;;;;;;;;;5115584;28;20441;-67
2022/08/23 00:06:12;;;;;;;59.67;3.73;;;;;;;;;;5115914;28;20445;-67
2022/08/23 00:08:40;;;;;;;60.13;4.60;;;;;;;;;;5115301;28;20458;-67
2022/08/23 00:11:08;;;;;;;60.97;5.60;;;;;;;;;;5115691;28;20444;-67
2022/08/23 00:13:35;;;;;;;62.77;4.50;;;;;;;;;;5115500;28;20467;-67
2022/08/23 00:16:02;;;;;;;61.30;4.30;;;;;;;;;;5115649;28;20438;-67
2022/08/23 00:18:29;;;;;;;59.03;3.40;;;;;;;;;;5115302;28;21118;-67
2022/08/23 00:20:58;;;;;;;59.27;3.70;;;;;;;;;;5115323;28;20454;-67
2022/08/23 00:23:25;;;;;;;60.00;4.10;;;;;;;;;;5115290;28;20469;-67
2022/08/23 00:25:52;;;;;;;63.40;4.43;;;;;;;;;;5115098;28;20489;-67
2022/08/23 00:28:19;;;;;;;59.50;4.17;;;;;;;;;;5115138;28;20452;-67
2022/08/23 00:30:46;;;;;;;61.50;4.40;;;;;;;;;;5114159;28;20821;-67
2022/08/23 00:33:13;;;;;;;60.30;3.77;;;;;;;;;;5115036;28;20472;-66
2022/08/23 00:35:41;;;;;;;61.30;3.67;;;;;;;;;;5115194;28;20456;-67
2022/08/23 00:38:09;;;;;;;60.00;4.13;;;;;;;;;;5114824;28;20945;-67
2022/08/23 00:40:36;;;;;;;59.37;3.83;;;;;;;;;;5114617;28;20452;-67
2022/08/23 00:48:48;;;;;;;59.07;3.60;;;;;;;;;;5105763;28;20579;-67
2022/08/23 00:51:17;;;;;;;59.53;3.80;;;;;;;;;;5114606;28;20450;-67
2022/08/23 00:53:48;;;;;;;60.30;4.20;;;;;;;;;;5114858;28;20487;-67
2022/08/23 00:56:17;;;;;;;60.60;4.20;;;;;;;;;;5114913;28;20444;-67
2022/08/23 00:58:45;;;;;;;62.67;4.20;;;;;;;;;;5114260;28;20842;-67
2022/08/23 01:01:12;;;;;;;59.30;3.83;;;;;;;;;;5114475;28;20498;-68
2022/08/23 01:03:42;;;;;;;60.20;4.20;;;;;;;;;;5114396;28;20444;-67
2022/08/23 01:06:12;;;;;;;61.00;3.97;;;;;;;;;;5116249;28;20493;-68
2022/08/23 01:08:40;;;;;;;61.13;4.50;;;;;;;;;;5114982;28;20441;-67
2022/08/23 01:11:10;;;;;;;61.40;4.80;;;;;;;;;;5115635;28;20450;-68
2022/08/23 01:13:40;;;;;;;63.73;4.33;;;;;;;;;;5118194;28;20970;-68
2022/08/23 01:16:10;;;;;;;60.03;3.63;;;;;;;;;;5117925;28;20452;-68
2022/08/23 01:18:38;;;;;;;59.77;4.00;;;;;;;;;;5114556;28;20449;-67
2022/08/23 01:21:09;;;;;;;59.40;3.77;;;;;;;;;;5114516;28;20464;-68
2022/08/23 01:23:40;;;;;;;59.37;4.07;;;;;;;;;;5114462;28;20448;-67
2022/08/23 01:26:08;;;;;;;60.03;4.17;;;;;;;;;;5114348;28;20448;-67
2022/08/23 01:28:35;;;;;;;59.23;3.70;;;;;;;;;;5114542;28;20452;-67
2022/08/23 01:31:04;;;;;;;59.90;4.20;;;;;;;;;;5118903;28;20442;-68
2022/08/23 01:33:31;;;;;;;60.00;4.20;;;;;;;;;;5121872;28;20470;-68
2022/08/23 01:35:59;;;;;;;60.27;4.30;;;;;;;;;;5120527;28;20505;-68
2022/08/23 01:38:27;;;;;;;59.70;4.00;;;;;;;;;;5119827;28;20553;-68
2022/08/23 01:40:55;;;;;;;60.80;4.03;;;;;;;;;;5121150;28;20528;-69
2022/08/23 01:43:22;;;;;;;59.27;4.07;;;;;;;;;;5120419;28;20540;-69
2022/08/23 01:45:50;;;;;;;59.80;4.43;;;;;;;;;;5119713;28;20517;-69
2022/08/23 01:48:18;;;;;;;60.23;4.00;;;;;;;;;;5121668;28;20485;-69
2022/08/23 01:50:45;;;;;;;60.37;4.33;;;;;;;;;;5120666;28;20560;-69
2022/08/23 01:53:13;;;;;;;60.37;4.13;;;;;;;;;;5121565;28;20481;-68
2022/08/23 01:55:40;;;;;;;59.37;4.00;;;;;;;;;;5121252;28;20456;-68
2022/08/23 01:58:09;;;;;;;60.47;4.40;;;;;;;;;;5120607;28;20506;-67
2022/08/23 02:00:38;;;;;;;60.20;4.40;;;;;;;;;;5121208;28;20530;-68
2022/08/23 02:03:06;;;;;;;60.87;4.40;;;;;;;;;;5121190;28;20525;-69
2022/08/23 02:05:36;;;;;;;59.50;4.47;;;;;;;;;;5120874;28;20799;-69
2022/08/23 02:10:44;;;;;;;59.80;4.50;;;;;;;;;;5120196;28;20460;-67
2022/08/23 02:13:13;;;;;;;59.70;4.10;;;;;;;;;;5120331;28;20465;-68
2022/08/23 02:15:43;;;;;;;60.00;4.53;;;;;;;;;;5120915;28;20512;-68
2022/08/23 02:18:10;;;;;;;61.60;4.20;;;;;;;;;;5121850;28;20956;-68
2022/08/23 02:20:39;;;;;;;59.60;4.07;;;;;;;;;;5121625;28;20445;-68
2022/08/23 02:23:06;;;;;;;60.17;3.93;;;;;;;;;;5121846;28;20501;-69
2022/08/23 02:25:33;;;;;;;60.60;4.20;;;;;;;;;;5121639;28;20516;-68
2022/08/23 02:28:03;;;;;;;65.60;4.33;;;;;;;;;;5121294;28;20488;-68
2022/08/23 02:30:31;;;;;;;59.67;3.80;;;;;;;;;;5120698;28;20471;-68
2022/08/23 02:32:58;;;;;;;59.93;3.97;;;;;;;;;;5121249;28;20556;-68
2022/08/23 02:35:25;;;;;;;60.10;4.60;;;;;;;;;;5121337;28;20449;-68
2022/08/23 02:37:53;;;;;;;59.57;4.10;;;;;;;;;;5121322;28;20532;-68
2022/08/23 02:40:21;;;;;;;61.63;3.80;;;;;;;;;;5121107;28;20536;-68
2022/08/23 02:42:48;;;;;;;59.13;3.93;;;;;;;;;;5120791;28;20457;-68
2022/08/23 02:45:16;;;;;;;63.40;4.40;;;;;;;;;;5121896;28;20437;-68
2022/08/23 02:47:45;;;;;;;60.00;4.00;;;;;;;;;;5120305;28;20477;-67
2022/08/23 02:50:12;;;;;;;59.60;4.13;;;;;;;;;;5121232;28;20446;-68
2022/08/23 02:52:40;;;;;;;60.97;4.60;;;;;;;;;;5120604;28;20472;-69
2022/08/23 02:55:08;;;;;;;59.87;4.17;;;;;;;;;;5121412;28;20536;-68
2022/08/23 02:57:35;;;;;;;60.03;4.47;;;;;;;;;;5121138;28;20520;-68
2022/08/23 03:00:02;;;;;;;60.97;6.30;;;;;;;;;;5122289;28;20536;-68
2022/08/23 03:02:29;;;;;;;60.27;4.23;;;;;;;;;;5120941;28;20561;-68
2022/08/23 03:04:58;;;;;;;60.57;4.67;;;;;;;;;;5121990;28;20441;-68
2022/08/23 03:07:25;;;;;;;59.50;4.10;;;;;;;;;;5121145;28;20481;-68
2022/08/23 03:09:52;;;;;;;60.43;3.73;;;;;;;;;;5121377;28;20450;-69
2022/08/23 03:12:20;;;;;;;60.07;4.23;;;;;;;;;;5121006;28;20556;-68
2022/08/23 03:14:47;;;;;;;60.37;4.13;;;;;;;;;;5121111;28;20450;-69
2022/08/23 03:17:14;;;;;;;60.07;4.00;;;;;;;;;;5121168;28;20529;-68
2022/08/23 03:19:41;;;;;;;60.93;5.13;;;;;;;;;;5119659;28;20445;-69
2022/08/23 03:22:09;;;;;;;59.50;3.90;;;;;;;;;;5119858;28;20997;-68
2022/08/23 03:24:37;;;;;;;59.47;4.00;;;;;;;;;;5119804;28;20505;-69
2022/08/23 03:27:05;;;;;;;59.57;4.00;;;;;;;;;;5119497;28;20490;-68
2022/08/23 03:29:32;;;;;;;59.67;3.87;;;;;;;;;;5117450;28;20536;-68
2022/08/23 03:31:59;;;;;;;60.20;4.30;;;;;;;;;;5114387;28;20469;-67
2022/08/23 03:34:26;;;;;;;59.53;4.57;;;;;;;;;;5112384;28;20822;-68
2022/08/23 03:36:54;;;;;;;59.80;4.20;;;;;;;;;;5111974;28;20515;-67
2022/08/23 03:39:23;;;;;;;61.50;4.43;;;;;;;;;;5111987;28;20453;-67
2022/08/23 03:41:50;;;;;;;60.53;4.37;;;;;;;;;;5112331;28;20544;-68
2022/08/23 03:44:17;;;;;;;60.17;4.30;;;;;;;;;;5112123;28;20454;-67
2022/08/23 03:46:44;;;;;;;60.37;3.93;;;;;;;;;;5111920;28;20488;-68
2022/08/23 03:49:11;;;;;;;61.40;4.33;;;;;;;;;;5111800;28;20442;-68
2022/08/23 03:51:38;;;;;;;60.77;4.60;;;;;;;;;;5111818;28;20461;-66
2022/08/23 03:54:06;;;;;;;60.60;4.30;;;;;;;;;;5111793;28;20472;-68
2022/08/23 03:56:35;;;;;;;60.77;4.73;;;;;;;;;;5111994;28;20441;-67
2022/08/23 03:59:05;;;;;;;59.60;4.10;;;;;;;;;;5111462;28;20945;-68
2022/08/23 04:01:32;;;;;;;60.20;4.23;;;;;;;;;;5112320;28;20470;-68
2022/08/23 04:03:59;;;;;;;59.40;3.70;;;;;;;;;;5111929;28;20449;-68
2022/08/23 04:06:27;;;;;;;60.37;4.67;;;;;;;;;;5115313;28;20441;-68
2022/08/23 04:08:54;;;;;;;59.33;4.13;;;;;;;;;;5115764;28;20568;-68
2022/08/23 04:11:21;;;;;;;64.17;5.23;;;;;;;;;;5115685;28;20449;-68
2022/08/23 04:13:50;;;;;;;60.60;4.00;;;;;;;;;;5115781;28;20437;-68
2022/08/23 04:16:17;;;;;;;59.03;3.60;;;;;;;;;;5115827;28;20532;-67
2022/08/23 04:18:45;;;;;;;59.37;3.90;;;;;;;;;;5115028;28;20491;-68
2022/08/23 04:21:15;;;;;;;59.50;4.00;;;;;;;;;;5115626;28;20449;-68
2022/08/23 04:23:42;;;;;;;59.87;4.20;;;;;;;;;;5115741;28;20451;-68
2022/08/23 04:26:09;;;;;;;59.70;4.10;;;;;;;;;;5115514;28;20449;-67
2022/08/23 04:28:37;;;;;;;59.37;3.70;;;;;;;;;;5114783;28;20473;-67
2022/08/23 04:31:06;;;;;;;59.53;4.17;;;;;;;;;;5115096;28;20481;-68
2022/08/23 04:33:34;;;;;;;61.97;4.57;;;;;;;;;;5115025;28;20465;-67
2022/08/23 04:36:02;;;;;;;60.43;4.27;;;;;;;;;;5115050;28;20511;-68
2022/08/23 04:38:29;;;;;;;60.57;5.20;;;;;;;;;;5114947;28;20437;-68
2022/08/23 04:43:42;;;;;;;59.77;4.40;;;;;;;;;;5114885;28;20416;-68
2022/08/23 04:46:13;;;;;;;59.73;4.13;;;;;;;;;;5114821;28;20457;-68
2022/08/23 04:48:40;;;;;;;66.30;4.97;;;;;;;;;;5114370;28;20521;-67
2022/08/23 04:51:08;;;;;;;61.87;4.13;;;;;;;;;;5115089;28;20446;-68
2022/08/23 04:53:35;;;;;;;61.20;4.37;;;;;;;;;;5114611;28;20864;-68
2022/08/23 04:56:03;;;;;;;60.60;3.93;;;;;;;;;;5114607;28;20449;-68
2022/08/23 04:58:30;;;;;;;60.20;4.43;;;;;;;;;;5114305;28;20449;-68
2022/08/23 05:00:58;;;;;;;60.53;5.30;;;;;;;;;;5114394;28;20445;-68
2022/08/23 05:03:28;;;;;;;60.90;4.60;;;;;;;;;;5114395;28;20470;-68
2022/08/23 05:05:56;;;;;;;60.80;4.60;;;;;;;;;;5114565;28;20475;-68
2022/08/23 05:08:24;;;;;;;60.47;4.60;;;;;;;;;;5114653;28;20506;-67
2022/08/23 05:10:51;;;;;;;59.40;3.83;;;;;;;;;;5114148;28;20532;-67
2022/08/23 05:13:18;;;;;;;61.07;4.90;;;;;;;;;;5114521;28;20810;-68
2022/08/23 05:15:45;;;;;;;62.17;4.17;;;;;;;;;;5114079;28;20481;-68
2022/08/23 05:18:13;;;;;;;59.40;4.17;;;;;;;;;;5114543;28;20471;-70
2022/08/23 05:20:41;;;;;;;59.30;4.10;;;;;;;;;;5114296;28;20442;-69
2022/08/23 05:23:08;;;;;;;61.17;4.87;;;;;;;;;;5114167;28;20462;-67
2022/08/23 05:25:51;;;;;;;60.77;4.67;;;;;;;;;;5114110;28;20453;-68
2022/08/23 05:28:20;;;;;;;60.17;5.07;;;;;;;;;;5114071;28;20488;-68
2022/08/23 05:30:54;;;;;;;59.70;4.43;;;;;;;;;;5113895;28;20445;-67
2022/08/23 05:33:21;;;;;;;59.47;4.30;;;;;;;;;;5114092;28;20556;-68
2022/08/23 05:35:50;;;;;;;59.87;4.27;;;;;;;;;;5114064;28;20532;-69
2022/08/23 05:38:17;;;;;;;63.63;4.27;;;;;;;;;;5114236;28;20440;-67
2022/08/23 05:40:44;;;;;;;61.30;4.30;;;;;;;;;;5113932;28;20448;-66
2022/08/23 05:43:11;;;;;;;59.73;3.97;;;;;;;;;;5113993;28;20462;-67
2022/08/23 05:45:38;;;;;;;64.40;4.17;;;;;;;;;;5114007;28;20824;-68
2022/08/23 05:48:06;;;;;;;59.97;4.30;;;;;;;;;;5113561;28;20481;-69
2022/08/23 05:50:34;;;;;;;59.60;4.20;;;;;;;;;;5113577;28;20452;-66
2022/08/23 05:53:03;;;;;;;60.60;4.57;;;;;;;;;;5113503;28;20775;-66
2022/08/23 05:55:30;;;;;;;60.03;4.37;;;;;;;;;;5113871;28;21035;-67
2022/08/23 05:57:57;;;;;;;63.30;4.40;;;;;;;;;;5113611;28;20445;-69
2022/08/23 06:00:24;;;;;;;59.50;3.93;;;;;;;;;;5113379;28;20449;-67
2022/08/23 06:02:51;;;;;;;59.93;3.73;;;;;;;;;;5113478;28;20483;-68
2022/08/23 06:05:19;;;;;;;59.50;4.30;;;;;;;;;;5113624;28;20819;-67
2022/08/23 06:07:46;;;;;;;59.47;3.87;;;;;;;;;;5113538;28;20478;-68
2022/08/23 06:10:15;;;;;;;59.97;4.40;;;;;;;;;;5113212;28;20556;-69
2022/08/23 06:12:42;;;;;;;59.40;4.30;;;;;;;;;;5113620;28;20560;-69
2022/08/23 06:15:09;;;;;;;62.43;4.27;;;;;;;;;;5113483;28;20821;-68
2022/08/23 06:17:36;;;;;;;59.37;4.23;;;;;;;;;;5113104;28;20445;-67
2022/08/23 06:20:04;;;;;;;59.70;4.30;;;;;;;;;;5113039;28;20441;-68
2022/08/23 06:22:31;;;;;;;60.00;4.07;;;;;;;;;;5113202;28;20464;-67
2022/08/23 06:24:59;;;;;;;59.23;4.03;;;;;;;;;;5113001;28;20449;-67
2022/08/23 06:27:27;;;;;;;59.53;3.60;;;;;;;;;;5112148;28;20452;-67
2022/08/23 06:29:54;;;;;;;62.57;3.80;;;;;;;;;;5112589;28;20449;-69
2022/08/23 06:32:22;;;;;;;59.20;3.33;;;;;;;;;;5112808;28;20469;-68
2022/08/23 06:34:49;;;;;;;58.97;3.50;;;;;;;;;;5113045;28;20540;-68
2022/08/23 06:37:16;;;;;;;59.27;3.90;;;;;;;;;;5113029;28;20544;-68
2022/08/23 06:39:43;;;;;;;61.20;3.50;;;;;;;;;;5112552;28;20438;-66
2022/08/23 06:42:11;;;;;;;59.17;3.50;;;;;;;;;;5112739;28;20977;-69
2022/08/23 06:44:40;;;;;;;59.17;3.50;;;;;;;;;;5112637;28;20956;-69
2022/08/23 06:47:07;;;;;;;59.37;3.90;;;;;;;;;;5112616;28;20448;-68
2022/08/23 06:49:35;;;;;;;59.10;4.00;;;;;;;;;;5112443;28;20631;-68
2022/08/23 06:52:04;;;;;;;59.63;4.37;;;;;;;;;;5112711;28;20474;-68
2022/08/23 06:54:32;;;;;;;58.97;3.10;;;;;;;;;;5112364;28;20472;-67
2022/08/23 06:57:00;;;;;;;63.13;4.47;;;;;;;;;;5112318;28;20441;-67
2022/08/23 06:59:28;;;;;;;63.70;3.43;;;;;;;;;;5112393;28;20476;-65
2022/08/23 07:01:57;;;;;;;59.47;3.80;;;;;;;;;;5112366;28;20468;-66
2022/08/23 07:04:28;;;;;;;59.40;3.53;;;;;;;;;;5112676;28;20448;-66
2022/08/23 07:06:55;;;;;;;59.17;3.53;;;;;;;;;;5112412;28;20452;-66
2022/08/23 07:09:22;;;;;;;60.60;4.07;;;;;;;;;;5111885;28;20501;-66
2022/08/23 07:11:50;;;;;;;59.00;3.50;;;;;;;;;;5112410;28;20549;-68
2022/08/23 07:14:18;;;;;;;58.47;3.43;;;;;;;;;;5112549;28;20446;-65
2022/08/23 07:16:47;;;;;;;58.60;3.10;;;;;;;;;;5112442;28;20469;-67
2022/08/23 07:19:16;;;;;;;62.00;3.53;;;;;;;;;;5111873;28;20441;-68
2022/08/23 07:21:43;;;;;;;59.20;3.50;;;;;;;;;;5112346;28;20553;-69
2022/08/23 07:24:12;;;;;;;58.87;2.93;;;;;;;;;;5112222;28;20463;-68
2022/08/23 07:26:40;;;;;;;59.63;4.00;;;;;;;;;;5112611;28;20455;-68
2022/08/23 07:29:07;;;;;;;58.00;2.73;;;;;;;;;;5111882;28;20518;-68
2022/08/23 07:31:36;;;;;;;58.80;3.40;;;;;;;;;;5112445;28;20472;-68
2022/08/23 07:34:04;;;;;;;60.50;3.40;;;;;;;;;;5112267;28;20455;-68
2022/08/23 07:36:34;;;;;;;59.13;3.60;;;;;;;;;;5112224;28;20451;-68
2022/08/23 07:39:01;;;;;;;59.97;3.53;;;;;;;;;;5112904;28;20961;-68
2022/08/23 07:41:30;;;;;;;62.00;3.77;;;;;;;;;;5116527;28;20457;-68
2022/08/23 07:43:58;;;;;;;58.17;3.13;;;;;;;;;;5117005;28;20481;-68
2022/08/23 07:46:26;;;;;;;58.60;3.63;;;;;;;;;;5116814;28;20940;-67
2022/08/23 07:48:54;;;;;;;58.67;3.37;;;;;;;;;;5116159;28;20516;-68
2022/08/23 07:51:21;;;;;;;59.10;3.47;;;;;;;;;;5115896;28;20840;-67
2022/08/23 07:53:50;;;;;;;58.40;3.57;;;;;;;;;;5116183;28;20453;-68
2022/08/23 07:56:18;;;;;;;58.43;2.93;;;;;;;;;;5116220;28;20479;-68
2022/08/23 07:58:46;;;;;;;59.07;3.30;;;;;;;;;;5116055;28;20528;-68
2022/08/23 08:01:14;;;;;;;60.40;3.10;;;;;;;;;;5115896;28;20796;-68
2022/08/23 08:03:42;;;;;;;59.00;3.10;;;;;;;;;;5115791;28;20453;-68
2022/08/23 08:06:11;;;;;;;58.10;3.50;;;;;;;;;;5116043;28;20485;-68
2022/08/23 08:08:39;;;;;;;58.80;3.20;;;;;;;;;;5115638;28;20847;-68
2022/08/23 08:11:09;;;;;;;59.40;3.10;;;;;;;;;;5115672;28;20492;-68
2022/08/23 08:13:37;;;;;;;58.50;3.17;;;;;;;;;;5115805;28;20457;-67
2022/08/23 08:16:05;;;;;;;58.70;3.30;;;;;;;;;;5116072;28;20442;-67
2022/08/23 08:18:32;;;;;;;60.10;3.53;;;;;;;;;;5116448;28;20870;-68
2022/08/23 08:21:00;;;;;;;59.10;3.20;;;;;;;;;;5115823;28;20453;-68
2022/08/23 08:23:28;;;;;;;59.47;3.20;;;;;;;;;;5116262;28;20465;-68
2022/08/23 08:26:01;;;;;;;58.47;2.90;;;;;;;;;;5116026;28;20858;-67
2022/08/23 08:28:30;;;;;;;58.40;3.10;;;;;;;;;;5115358;28;20477;-67
2022/08/23 08:30:57;;;;;;;58.17;3.40;;;;;;;;;;5115631;28;20546;-68
2022/08/23 08:33:25;;;;;;;58.80;3.30;;;;;;;;;;5116031;28;21011;-68
2022/08/23 08:35:52;;;;;;;58.80;3.43;;;;;;;;;;5115845;28;21033;-67
2022/08/23 08:38:19;;;;;;;58.27;3.00;;;;;;;;;;5115709;28;20437;-67
2022/08/23 08:40:48;;;;;;;59.17;3.10;;;;;;;;;;5115417;28;20453;-67
2022/08/23 08:43:21;;;;;;;58.37;2.70;;;;;;;;;;5115469;28;20556;-66
2022/08/23 08:45:58;;;;;;;58.37;2.70;;;;;;;;;;5117085;28;20541;-65
2022/08/23 08:48:27;;;;;;;60.00;2.70;;;;;;;;;;5115496;28;20449;-66
2022/08/23 08:50:56;;;;;;;60.30;3.10;;;;;;;;;;5115347;28;20469;-66
2022/08/23 08:53:26;;;;;;;59.20;2.83;;;;;;;;;;5118110;28;20480;-66
2022/08/23 08:55:56;;;;;;;58.40;3.10;;;;;;;;;;5117157;28;20900;-66
2022/08/23 08:58:25;;;;;;;58.60;2.93;;;;;;;;;;5117179;28;20867;-66
2022/08/23 09:00:53;;;;;;;58.90;3.27;;;;;;;;;;5116364;28;20445;-66
2022/08/23 09:03:21;;;;;;;58.10;2.50;;;;;;;;;;5117381;28;20976;-67
2022/08/23 09:05:52;;;;;;;59.53;3.40;;;;;;;;;;5116826;28;20441;-67
2022/08/23 09:08:27;;;;;;;58.60;2.60;;;;;;;;;;5117201;28;20961;-67
2022/08/23 09:10:57;;;;;;;58.70;3.00;;;;;;;;;;5116912;28;20455;-66
2022/08/23 09:13:40;;;;;;;58.17;2.70;;;;;;;;;;5116935;28;20646;-67
2022/08/23 09:16:12;;;;;;;58.47;3.40;;;;;;;;;;5117533;28;20922;-67
2022/08/23 09:18:40;;;;;;;57.70;2.47;;;;;;;;;;5116291;28;20442;-67
2022/08/23 09:21:09;;;;;;;58.27;2.60;;;;;;;;;;5116736;28;20441;-67
2022/08/23 09:23:37;;;;;;;58.30;2.70;;;;;;;;;;5116616;28;20994;-67
2022/08/23 09:26:20;;;;;;;58.27;3.20;;;;;;;;;;5116747;28;20448;-67
2022/08/23 09:28:50;;;;;;;58.57;3.10;;;;;;;;;;5117031;28;20564;-68
2022/08/23 09:34:15;;;;;;;57.97;2.80;;;;;;;;;;5091058;27;20521;-67
2022/08/23 09:36:43;;;;;;;58.97;3.20;;;;;;;;;;5091835;28;20469;-68
2022/08/23 09:39:25;;;;;;;57.97;3.00;;;;;;;;;;5091249;28;20540;-67
2022/08/23 09:41:52;;;;;;;58.27;3.00;;;;;;;;;;5091043;28;20554;-67
2022/08/23 09:44:34;;;;;;;58.20;2.83;;;;;;;;;;5092264;28;20833;-68
2022/08/23 09:47:12;;;;;;;58.50;2.97;;;;;;;;;;5091289;28;20446;-67
2022/08/23 09:49:41;;;;;;;58.20;2.87;;;;;;;;;;5091281;28;20439;-67
2022/08/23 09:52:22;;;;;;;58.07;2.80;;;;;;;;;;5090031;28;20585;-68
2022/08/23 09:54:57;;;;;;;58.20;2.60;;;;;;;;;;5090909;28;20873;-67
2022/08/23 09:57:25;;;;;;;58.30;2.90;;;;;;;;;;5089842;28;20538;-67
2022/08/23 09:59:54;;;;;;;60.30;2.80;;;;;;;;;;5090381;28;20478;-68
2022/08/23 10:02:25;;;;;;;58.30;2.97;;;;;;;;;;5090144;28;20467;-68
2022/08/23 10:04:58;;;;;;;58.50;2.70;;;;;;;;;;5090183;28;20537;-68
2022/08/23 10:07:28;;;;;;;57.37;2.20;;;;;;;;;;5089480;28;20446;-67
2022/08/23 10:09:55;;;;;;;57.90;2.30;;;;;;;;;;5089335;28;20520;-68
2022/08/23 10:12:23;;;;;;;58.50;2.40;;;;;;;;;;5089225;28;20539;-66
2022/08/23 10:14:51;;;;;;;59.00;2.70;;;;;;;;;;5090511;28;20489;-67
2022/08/23 10:17:26;;;;;;;57.40;2.30;;;;;;;;;;5090803;28;20456;-66
2022/08/23 10:19:59;;;;;;;56.90;2.17;;;;;;;;;;5089080;28;20533;-67
2022/08/23 10:22:28;;;;;;;57.67;2.90;;;;;;;;;;5089737;28;20463;-66
2022/08/23 10:25:01;;;;;;;57.00;2.13;;;;;;;;;;5089991;28;20447;-66
2022/08/23 10:30:24;;;;;;;56.97;2.03;;;;;;;;;;5090525;28;20844;-66
2022/08/23 10:32:56;;;;;;;57.73;2.40;;;;;;;;;;5089923;28;20581;-67
2022/08/23 10:35:32;;;;;;;57.37;2.10;;;;;;;;;;5089318;28;20529;-68
2022/08/23 10:38:06;;;;;;;56.60;2.33;;;;;;;;;;5089615;28;20537;-67
2022/08/23 10:40:36;;;;;;;56.60;2.20;;;;;;;;;;5090467;28;20953;-66
2022/08/23 10:43:13;;;;;;;56.60;2.27;;;;;;;;;;5089426;28;20471;-67
2022/08/23 10:45:42;;;;;;;57.10;2.40;;;;;;;;;;5076473;28;20510;-67
2022/08/23 10:48:18;;;;;;;56.60;2.20;;;;;;;;;;5076347;28;20537;-66
2022/08/23 10:50:48;;;;;;;56.70;2.30;;;;;;;;;;5075530;28;20883;-67
2022/08/23 10:53:17;;;;;;;56.50;2.33;;;;;;;;;;5075376;28;20491;-66
2022/08/23 10:56:01;;;;;;;58.50;2.87;;;;;;;;;;5075804;28;20748;-70
2022/08/23 10:58:31;;;;;;;58.83;2.37;;;;;;;;;;5076079;28;20447;-65
2022/08/23 11:00:59;;;;;;;56.67;2.50;;;;;;;;;;5076521;28;20451;-66
2022/08/23 11:03:29;;;;;;;56.57;2.13;;;;;;;;;;5076178;28;20908;-67
2022/08/23 11:06:15;;;;;;;57.10;2.10;;;;;;;;;;5075210;28;20516;-67
2022/08/23 11:08:45;;;;;;;56.80;2.30;;;;;;;;;;5077782;28;20539;-67
2022/08/23 11:11:27;;;;;;;56.37;2.00;;;;;;;;;;5077543;28;20508;-66
2022/08/23 11:13:54;;;;;;;56.47;1.90;;;;;;;;;;5076688;28;20487;-67
2022/08/23 11:16:24;;;;;;;57.17;2.47;;;;;;;;;;5076527;28;20469;-67
2022/08/23 11:18:51;;;;;;;56.50;2.10;;;;;;;;;;5076215;28;20454;-67
2022/08/23 11:21:38;;;;;;;57.73;2.10;;;;;;;;;;5077123;28;20880;-68
2022/08/23 11:24:39;;;;;;;56.53;2.30;;;;;;;;;;5079243;28;20684;-67
2022/08/23 11:27:07;;;;;;;59.20;2.53;;;;;;;;;;5016311;28;20456;-67
2022/08/23 11:29:40;;;;;;;56.80;2.50;;;;;;;;;;5015100;28;20860;-67
2022/08/23 11:32:26;;;;;;;56.17;2.10;;;;;;;;;;5045014;28;20471;-67
2022/08/23 11:34:59;;;;;;;57.30;2.80;;;;;;;;;;5077475;28;20487;-67
2022/08/23 11:37:28;;;;;;;56.60;2.20;;;;;;;;;;5075912;28;20856;-67
2022/08/23 11:40:09;;;;;;;56.40;2.00;;;;;;;;;;5075230;28;20951;-67
2022/08/23 11:42:49;;;;;;;56.50;2.10;;;;;;;;;;5074890;28;20851;-67
2022/08/23 11:45:24;;;;;;;56.90;2.50;;;;;;;;;;5075470;28;20447;-67
2022/08/23 11:47:54;;;;;;;56.53;2.10;;;;;;;;;;5077589;28;20477;-67
2022/08/23 11:50:26;;;;;;;56.87;2.40;;;;;;;;;;5075919;28;20454;-67
2022/08/23 11:53:04;;;;;;;57.10;2.33;;;;;;;;;;5075513;28;20483;-67
2022/08/23 11:55:38;;;;;;;57.57;2.40;;;;;;;;;;5076996;28;20458;-67
2022/08/23 11:58:15;;;;;;;56.70;2.60;;;;;;;;;;5076733;28;20461;-67
2022/08/23 12:01:05;;;;;;;56.67;2.17;;;;;;;;;;5074532;28;20443;-67
2022/08/23 12:03:35;;;;;;;56.53;2.40;;;;;;;;;;5069638;28;20472;-68
2022/08/23 12:06:11;;;;;;;56.57;2.17;;;;;;;;;;5074777;28;20447;-67
2022/08/23 12:08:50;;;;;;;56.20;2.40;;;;;;;;;;5073402;28;20538;-68
2022/08/23 12:11:18;;;;;;;57.97;2.43;;;;;;;;;;5074423;28;20455;-68
2022/08/23 12:13:52;;;;;;;57.67;2.30;;;;;;;;;;5073554;28;20502;-67
2022/08/23 12:16:33;;;;;;;56.03;2.00;;;;;;;;;;5073099;28;20451;-68
2022/08/23 12:19:02;;;;;;;57.00;2.20;;;;;;;;;;5073305;28;20823;-68
2022/08/23 12:21:32;;;;;;;56.33;2.27;;;;;;;;;;5073491;28;20492;-67
2022/08/23 12:24:01;;;;;;;56.53;2.30;;;;;;;;;;5074414;28;20469;-68
2022/08/23 12:26:31;;;;;;;60.20;5.00;;;;;;;;;;5073706;28;20509;-68
2022/08/23 12:29:02;;;;;;;57.60;2.53;;;;;;;;;;5074114;28;20538;-70
2022/08/23 12:31:37;;;;;;;56.30;2.10;;;;;;;;;;5074809;28;20539;-68
2022/08/23 12:34:12;;;;;;;56.40;2.23;;;;;;;;;;5073782;28;20508;-69
2022/08/23 12:36:44;;;;;;;57.20;2.20;;;;;;;;;;5073404;28;20534;-67
2022/08/23 12:39:22;;;;;;;56.37;2.17;;;;;;;;;;5074160;28;20992;-68
2022/08/23 12:41:52;;;;;;;56.47;2.17;;;;;;;;;;5072597;28;20467;-68
2022/08/23 12:44:22;;;;;;;57.17;2.47;;;;;;;;;;5073385;28;20443;-68
2022/08/23 12:46:50;;;;;;;56.83;2.20;;;;;;;;;;5074950;28;20462;-68
2022/08/23 12:49:24;;;;;;;57.30;2.50;;;;;;;;;;5074839;28;20447;-68
2022/08/23 12:51:52;;;;;;;56.90;2.40;;;;;;;;;;5074182;28;20467;-68
2022/08/23 12:54:21;;;;;;;56.73;2.40;;;;;;;;;;5075737;28;20497;-68
2022/08/23 12:56:49;;;;;;;58.40;2.70;;;;;;;;;;5075413;28;20496;-68
2022/08/23 12:59:34;;;;;;;57.00;2.30;;;;;;;;;;5072982;28;20447;-67
2022/08/23 13:02:02;;;;;;;56.20;2.17;;;;;;;;;;5072023;28;20997;-68
2022/08/23 13:04:30;;;;;;;56.50;2.10;;;;;;;;;;5072413;28;20451;-68
2022/08/23 13:06:59;;;;;;;56.30;2.10;;;;;;;;;;5071855;28;20497;-68
2022/08/23 13:09:27;;;;;;;56.47;2.20;;;;;;;;;;5073723;28;20839;-68
2022/08/23 13:11:56;;;;;;;56.20;2.30;;;;;;;;;;5074970;28;21023;-67
2022/08/23 13:14:24;;;;;;;56.90;2.40;;;;;;;;;;5076317;28;20483;-68
2022/08/23 13:16:53;;;;;;;56.30;2.30;;;;;;;;;;5075191;28;20542;-68
2022/08/23 13:19:24;;;;;;;56.77;2.70;;;;;;;;;;5074665;28;20818;-67
2022/08/23 13:22:06;;;;;;;57.40;2.23;;;;;;;;;;5076297;28;20467;-68
2022/08/23 13:24:35;;;;;;;58.60;2.30;;;;;;;;;;5076270;28;20439;-67
2022/08/23 13:27:16;;;;;;;57.50;2.40;;;;;;;;;;5076002;28;20450;-67
2022/08/23 13:29:54;;;;;;;58.67;2.73;;;;;;;;;;5075673;28;20439;-67
2022/08/23 13:32:30;;;;;;;57.30;2.40;;;;;;;;;;5075022;28;20562;-67
2022/08/23 13:35:12;;;;;;;57.60;2.60;;;;;;;;;;5076111;28;21010;-67
2022/08/23 13:37:45;;;;;;;57.00;2.00;;;;;;;;;;5076396;28;20446;-68
2022/08/23 13:40:20;;;;;;;57.23;2.23;;;;;;;;;;5074835;28;20534;-68
2022/08/23 13:42:48;;;;;;;57.07;2.40;;;;;;;;;;5075062;28;20470;-69
2022/08/23 13:45:16;;;;;;;56.80;2.30;;;;;;;;;;5073630;28;20901;-68
2022/08/23 13:47:48;;;;;;;56.57;2.17;;;;;;;;;;5073454;28;20444;-68
2022/08/23 13:50:17;;;;;;;56.90;2.03;;;;;;;;;;5075162;28;20455;-68
2022/08/23 13:52:44;;;;;;;57.70;2.30;;;;;;;;;;5075647;28;20835;-67
2022/08/23 13:55:12;;;;;;;56.90;2.27;;;;;;;;;;5075374;28;20487;-67
2022/08/23 13:57:39;;;;;;;56.77;2.10;;;;;;;;;;5075858;28;20461;-68
2022/08/23 14:00:09;;;;;;;58.33;2.20;;;;;;;;;;5075471;28;20789;-68
2022/08/23 14:02:36;;;;;;;57.40;2.50;;;;;;;;;;5075213;28;20463;-67
2022/08/23 14:05:06;;;;;;;57.60;2.40;;;;;;;;;;5075609;28;20440;-68
2022/08/23 14:07:33;;;;;;;57.07;2.80;;;;;;;;;;5073178;28;20824;-68
2022/08/23 14:10:01;;;;;;;57.53;2.23;;;;;;;;;;5074447;28;20443;-67
2022/08/23 14:12:30;;;;;;;57.60;2.90;;;;;;;;;;5074348;28;20543;-67
2022/08/23 14:14:57;;;;;;;57.00;2.33;;;;;;;;;;5075283;28;20487;-68
2022/08/23 14:17:24;;;;;;;57.07;2.20;;;;;;;;;;5075129;28;20530;-67
2022/08/23 14:19:51;;;;;;;58.57;2.30;;;;;;;;;;5076668;28;20448;-68
2022/08/23 14:22:20;;;;;;;57.70;2.90;;;;;;;;;;5077587;28;20462;-68
2022/08/23 14:24:47;;;;;;;59.30;2.40;;;;;;;;;;5075869;28;20439;-68
2022/08/23 14:27:14;;;;;;;56.90;2.33;;;;;;;;;;5076310;28;20451;-67
2022/08/23 14:29:41;;;;;;;58.07;2.60;;;;;;;;;;5075484;28;20443;-68
2022/08/23 14:32:08;;;;;;;57.50;2.23;;;;;;;;;;5075483;28;20471;-67
2022/08/23 14:34:35;;;;;;;58.93;2.50;;;;;;;;;;5074873;28;20485;-68
2022/08/23 14:37:02;;;;;;;56.77;2.17;;;;;;;;;;5074966;28;20457;-67
2022/08/23 14:39:31;;;;;;;56.20;1.90;;;;;;;;;;5074822;28;20953;-67
2022/08/23 14:41:58;;;;;;;56.83;2.27;;;;;;;;;;5075090;28;20471;-68
2022/08/23 14:44:26;;;;;;;56.40;2.03;;;;;;;;;;5075697;28;20443;-67
2022/08/23 14:46:53;;;;;;;56.57;2.37;;;;;;;;;;5076802;28;20443;-67
2022/08/23 14:49:20;;;;;;;56.50;2.17;;;;;;;;;;5077192;28;20534;-67
2022/08/23 14:51:49;;;;;;;56.87;2.60;;;;;;;;;;5077206;28;20975;-67
2022/08/23 14:54:18;;;;;;;57.10;2.57;;;;;;;;;;5075774;28;20585;-67
2022/08/23 14:56:47;;;;;;;56.83;2.40;;;;;;;;;;5075016;28;20444;-67
2022/08/23 14:59:14;;;;;;;56.50;2.20;;;;;;;;;;5075106;28;20534;-67
2022/08/23 15:01:41;;;;;;;56.90;1.93;;;;;;;;;;5076651;28;20467;-68